Home > Products > Valid Products > TAF

000
FTUS45 KPUB 070520
TAFPUB
TAF
KPUB 070520Z 0706/0806 VRB06KT P6SM FEW150 BKN250
     FM071400 30008KT P6SM SCT250
     FM072000 10007KT P6SM SCT250=



000
FTUS45 KPUB 070520
TAFALS
TAF
KALS 070520Z 0706/0806 VRB05KT P6SM FEW140 SCT250=



000
FTUS45 KPUB 070520
TAFCOS
TAF
KCOS 070520Z 0706/0806 33008KT P6SM FEW140 BKN250
     FM071400 01008KT P6SM SCT250
     FM071900 08008KT P6SM SCT250
     FM072200 14007KT P6SM FEW140 SCT250=



000
FTUS45 KPUB 062325
TAFPUB
TAF
KPUB 062325Z 0700/0724 VRB06KT P6SM FEW150 SCT250
     FM070200 VRB05KT P6SM SCT250
     FM071500 29008KT P6SM SCT250
     FM072000 10008KT P6SM SCT250=



000
FTUS45 KPUB 062325
TAFALS
TAF
KALS 062325Z 0700/0724 VRB05KT P6SM SCT200=



000
FTUS45 KPUB 062325
TAFCOS
TAF
KCOS 062325Z 0700/0724 VRB06KT P6SM FEW140 SCT250
     FM070200 35006KT P6SM SCT250
     FM071500 01010KT P6SM SCT250
     FM072000 08008KT P6SM SCT250=



000
FTUS45 KPUB 062325
TAFPUB
TAF
KPUB 062325Z 0700/0724 VRB06KT P6SM FEW150 SCT250
     FM070200 VRB05KT P6SM SCT250
     FM071500 29008KT P6SM SCT250
     FM072000 10008KT P6SM SCT250=



000
FTUS45 KPUB 062325
TAFPUB
TAF
KPUB 062325Z 0700/0724 VRB06KT P6SM FEW150 SCT250
     FM070200 VRB05KT P6SM SCT250
     FM071500 29008KT P6SM SCT250
     FM072000 10008KT P6SM SCT250=



000
FTUS45 KPUB 062325
TAFALS
TAF
KALS 062325Z 0700/0724 VRB05KT P6SM SCT200=



000
FTUS45 KPUB 062325
TAFCOS
TAF
KCOS 062325Z 0700/0724 VRB06KT P6SM FEW140 SCT250
     FM070200 35006KT P6SM SCT250
     FM071500 01010KT P6SM SCT250
     FM072000 08008KT P6SM SCT250=



000
FTUS45 KPUB 062028 AAA
TAFPUB
TAF AMD
KPUB 062028Z 0620/0718 09006KT P6SM BKN250
     FM070200 VRB04KT P6SM SCT250=



000
FTUS45 KPUB 061730
TAFALS
TAF
KALS 061730Z 0618/0718 VRB05KT P6SM SCT200=



000
FTUS45 KPUB 061730
TAFCOS
TAF
KCOS 061730Z 0618/0718 VRB06KT P6SM BKN250
     FM062100 17007KT P6SM SCT250
     FM070200 35006KT P6SM SCT250=



000
FTUS45 KPUB 061730
TAFPUB
TAF
KPUB 061730Z 0618/0718 VRB05KT P6SM SCT250
     FM062100 10006KT P6SM SCT250
     FM070200 VRB04KT P6SM SCT250=



000
FTUS45 KPUB 061120
TAFALS
TAF
KALS 061120Z 0612/0712 VRB05KT P6SM SKC=



000
FTUS45 KPUB 061120
TAFALS
TAF
KALS 061120Z 0612/0712 VRB05KT P6SM SKC=



000
FTUS45 KPUB 061120
TAFCOS
TAF
KCOS 061120Z 0612/0712 01007KT P6SM SKC
     FM061700 16005KT P6SM SKC
     FM070200 36007KT P6SM SKC=



000
FTUS45 KPUB 061120
TAFALS
TAF
KALS 061120Z 0612/0712 VRB05KT P6SM SKC=



000
FTUS45 KPUB 061120
TAFCOS
TAF
KCOS 061120Z 0612/0712 01007KT P6SM SKC
     FM061700 16005KT P6SM SKC
     FM070200 36007KT P6SM SKC=



000
FTUS45 KPUB 061120
TAFCOS
TAF
KCOS 061120Z 0612/0712 01007KT P6SM SKC
     FM061700 16005KT P6SM SKC
     FM070200 36007KT P6SM SKC=



000
FTUS45 KPUB 061120
TAFPUB
TAF
KPUB 061120Z 0612/0712 VRB05KT P6SM SKC
     FM062100 10005KT P6SM SKC
     FM070200 VRB05KT P6SM SKC=



000
FTUS45 KPUB 061120
TAFPUB
TAF
KPUB 061120Z 0612/0712 VRB05KT P6SM SKC
     FM062100 10005KT P6SM SKC
     FM070200 VRB05KT P6SM SKC=



000
FTUS45 KPUB 061120
TAFPUB
TAF
KPUB 061120Z 0612/0712 VRB05KT P6SM SKC
     FM062100 10005KT P6SM SKC
     FM070200 VRB05KT P6SM SKC=



000
FTUS45 KPUB 060535
TAFCOS
TAF
KCOS 060535Z 0606/0706 VRB06KT P6SM SKC
     FM061700 34008KT P6SM SCT200=



000
FTUS45 KPUB 060535
TAFALS
TAF
KALS 060535Z 0606/0706 VRB05KT P6SM SKC
     FM061700 VRB05KT P6SM FEW150 SCT200=



000
FTUS45 KPUB 060535
TAFPUB
TAF
KPUB 060535Z 0606/0706 VRB04KT P6SM SKC
     FM061700 28007KT P6SM SCT220=



000
FTUS45 KPUB 060535
TAFPUB
TAF
KPUB 060535Z 0606/0706 VRB04KT P6SM SKC
     FM061700 28007KT P6SM SCT220=



000
FTUS45 KPUB 060535
TAFPUB
TAF
KPUB 060535Z 0606/0706 VRB04KT P6SM SKC
     FM061700 28007KT P6SM SCT220=



000
FTUS45 KPUB 060535
TAFCOS
TAF
KCOS 060535Z 0606/0706 VRB06KT P6SM SKC
     FM061700 34008KT P6SM SCT200=



000
FTUS45 KPUB 060535
TAFALS
TAF
KALS 060535Z 0606/0706 VRB05KT P6SM SKC
     FM061700 VRB05KT P6SM FEW150 SCT200=



000
FTUS45 KPUB 060535
TAFALS
TAF
KALS 060535Z 0606/0706 VRB05KT P6SM SKC
     FM061700 VRB05KT P6SM FEW150 SCT200=



000
FTUS45 KPUB 060535
TAFCOS
TAF
KCOS 060535Z 0606/0706 VRB06KT P6SM SKC
     FM061700 34008KT P6SM SCT200=



000
FTUS45 KPUB 052337
TAFALS
TAF
KALS 052337Z 0600/0624 VRB05KT P6SM SKC
     FM061700 VRB05KT P6SM FEW150 SCT200=



000
FTUS45 KPUB 052337
TAFPUB
TAF
KPUB 052337Z 0600/0624 16006KT P6SM FEW250
     FM060200 VRB03KT P6SM SKC
     FM061700 28007KT P6SM SCT250=



000
FTUS45 KPUB 052337
TAFCOS
TAF
KCOS 052337Z 0600/0624 VRB06KT P6SM FEW080 SCT200
     FM060300 02007KT P6SM SKC
     FM061700 34008KT P6SM SCT200=



000
FTUS45 KPUB 052337
TAFCOS
TAF
KCOS 052337Z 0600/0624 VRB06KT P6SM FEW080 SCT200
     FM060300 02007KT P6SM SKC
     FM061700 34008KT P6SM SCT200=



000
FTUS45 KPUB 052337
TAFALS
TAF
KALS 052337Z 0600/0624 VRB05KT P6SM SKC
     FM061700 VRB05KT P6SM FEW150 SCT200=



000
FTUS45 KPUB 052337
TAFPUB
TAF
KPUB 052337Z 0600/0624 16006KT P6SM FEW250
     FM060200 VRB03KT P6SM SKC
     FM061700 28007KT P6SM SCT250=



000
FTUS45 KPUB 052337
TAFALS
TAF
KALS 052337Z 0600/0624 VRB05KT P6SM SKC
     FM061700 VRB05KT P6SM FEW150 SCT200=



000
FTUS45 KPUB 052337
TAFCOS
TAF
KCOS 052337Z 0600/0624 VRB06KT P6SM FEW080 SCT200
     FM060300 02007KT P6SM SKC
     FM061700 34008KT P6SM SCT200=



000
FTUS45 KPUB 052337
TAFPUB
TAF
KPUB 052337Z 0600/0624 16006KT P6SM FEW250
     FM060200 VRB03KT P6SM SKC
     FM061700 28007KT P6SM SCT250=



000
FTUS45 KPUB 051720
TAFALS
TAF
KALS 051720Z 0518/0618 26006KT P6SM FEW200
     FM060000 VRB03KT P6SM SKC=



000
FTUS45 KPUB 051720
TAFALS
TAF
KALS 051720Z 0518/0618 26006KT P6SM FEW200
     FM060000 VRB03KT P6SM SKC=



000
FTUS45 KPUB 051720
TAFCOS
TAF
KCOS 051720Z 0518/0618 35010KT P6SM SCT100 SCT250
     FM052100 15006KT P6SM SKC
     FM060300 02007KT P6SM SKC=



000
FTUS45 KPUB 051720
TAFCOS
TAF
KCOS 051720Z 0518/0618 35010KT P6SM SCT100 SCT250
     FM052100 15006KT P6SM SKC
     FM060300 02007KT P6SM SKC=



000
FTUS45 KPUB 051720
TAFCOS
TAF
KCOS 051720Z 0518/0618 35010KT P6SM SCT100 SCT250
     FM052100 15006KT P6SM SKC
     FM060300 02007KT P6SM SKC=



000
FTUS45 KPUB 051720
TAFALS
TAF
KALS 051720Z 0518/0618 26006KT P6SM FEW200
     FM060000 VRB03KT P6SM SKC=



000
FTUS45 KPUB 051720
TAFPUB
TAF
KPUB 051720Z 0518/0618 VRB03KT P6SM SCT080 SCT250
     FM052200 12006KT P6SM SKC
     FM060200 VRB03KT P6SM SKC=



000
FTUS45 KPUB 051720
TAFPUB
TAF
KPUB 051720Z 0518/0618 VRB03KT P6SM SCT080 SCT250
     FM052200 12006KT P6SM SKC
     FM060200 VRB03KT P6SM SKC=



000
FTUS45 KPUB 051720
TAFPUB
TAF
KPUB 051720Z 0518/0618 VRB03KT P6SM SCT080 SCT250
     FM052200 12006KT P6SM SKC
     FM060200 VRB03KT P6SM SKC=



000
FTUS45 KPUB 051122
TAFCOS
TAF
KCOS 051122Z 0512/0612 35010KT P6SM OVC110
     FM051500 34008KT P6SM SCT120 BKN200
     FM052100 14006KT P6SM SKC
     FM060400 01007KT P6SM SKC=



000
FTUS45 KPUB 051122
TAFALS
TAF
KALS 051122Z 0512/0612 26005KT P6SM BKN090
     FM051500 31005KT P6SM SCT200
     FM060000 VRB03KT P6SM SKC=



000
FTUS45 KPUB 051122
TAFCOS
TAF
KCOS 051122Z 0512/0612 35010KT P6SM OVC110
     FM051500 34008KT P6SM SCT120 BKN200
     FM052100 14006KT P6SM SKC
     FM060400 01007KT P6SM SKC=



000
FTUS45 KPUB 051122
TAFPUB
TAF
KPUB 051122Z 0512/0612 VRB03KT P6SM OVC080
     FM051500 30008KT P6SM SCT100 BKN200
     FM052200 13005KT P6SM SKC
     FM060200 VRB03KT P6SM SKC=



000
FTUS45 KPUB 051122
TAFALS
TAF
KALS 051122Z 0512/0612 26005KT P6SM BKN090
     FM051500 31005KT P6SM SCT200
     FM060000 VRB03KT P6SM SKC=



000
FTUS45 KPUB 051122
TAFALS
TAF
KALS 051122Z 0512/0612 26005KT P6SM BKN090
     FM051500 31005KT P6SM SCT200
     FM060000 VRB03KT P6SM SKC=



000
FTUS45 KPUB 051122
TAFCOS
TAF
KCOS 051122Z 0512/0612 35010KT P6SM OVC110
     FM051500 34008KT P6SM SCT120 BKN200
     FM052100 14006KT P6SM SKC
     FM060400 01007KT P6SM SKC=



000
FTUS45 KPUB 051122
TAFPUB
TAF
KPUB 051122Z 0512/0612 VRB03KT P6SM OVC080
     FM051500 30008KT P6SM SCT100 BKN200
     FM052200 13005KT P6SM SKC
     FM060200 VRB03KT P6SM SKC=



000
FTUS45 KPUB 051122
TAFPUB
TAF
KPUB 051122Z 0512/0612 VRB03KT P6SM OVC080
     FM051500 30008KT P6SM SCT100 BKN200
     FM052200 13005KT P6SM SKC
     FM060200 VRB03KT P6SM SKC=



000
FTUS45 KPUB 050957 AAC
TAFPUB
TAF AMD
KPUB 050957Z 0510/0606 28005KT P6SM SCT040 OVC070
     FM051400 30008KT P6SM SCT050 BKN100
     FM051700 VRB06KT P6SM SCT120 SCT200=



000
FTUS45 KPUB 050913 AAB
TAFALS
TAF AMD
KALS 050913Z 0509/0606 VRB03KT P6SM FEW090
     FM051500 VRB05KT P6SM SCT200=



000
FTUS45 KPUB 050913 AAB
TAFALS
TAF AMD
KALS 050913Z 0509/0606 VRB03KT P6SM FEW090
     FM051500 VRB05KT P6SM SCT200=



000
FTUS45 KPUB 050913 AAB
TAFALS
TAF AMD
KALS 050913Z 0509/0606 VRB03KT P6SM FEW090
     FM051500 VRB05KT P6SM SCT200=



000
FTUS45 KPUB 050912 AAB
TAFCOS
TAF AMD
KCOS 050912Z 0509/0606 33006KT P6SM BKN050 OVC070
      TEMPO 0509/0510 5SM -SN BR SCT030 BKN050
     FM051300 34009KT P6SM SCT025 SCT050 BKN100
     FM051600 VRB05KT P6SM FEW120 SCT200=



000
FTUS45 KPUB 050912 AAB
TAFCOS
TAF AMD
KCOS 050912Z 0509/0606 33006KT P6SM BKN050 OVC070
      TEMPO 0509/0510 5SM -SN BR SCT030 BKN050
     FM051300 34009KT P6SM SCT025 SCT050 BKN100
     FM051600 VRB05KT P6SM FEW120 SCT200=



000
FTUS45 KPUB 050725 AAB
TAFCOS
TAF AMD
KCOS 050725Z 0507/0606 36004KT 3/4SM -SN BR VV013
      TEMPO 0507/0510 2SM -SN BR SCT020 OVC025
     FM051300 34009KT P6SM SCT025 SCT050 BKN100
     FM051600 VRB05KT P6SM FEW120 SCT200=



000
FTUS45 KPUB 050723 AAA
TAFALS
TAF AMD
KALS 050723Z 0507/0606 30005KT P6SM OVC060
      TEMPO 0507/0510 5SM -SHSN SCT015 BKN030
     FM051000 VRB03KT 5SM BR BKN015
     FM051500 VRB06KT P6SM SCT200=



000
FTUS45 KPUB 050723 AAA
TAFALS
TAF AMD
KALS 050723Z 0507/0606 30005KT P6SM OVC060
      TEMPO 0507/0510 5SM -SHSN SCT015 BKN030
     FM051000 VRB03KT 5SM BR BKN015
     FM051500 VRB06KT P6SM SCT200=



000
FTUS45 KPUB 050723 AAA
TAFALS
TAF AMD
KALS 050723Z 0507/0606 30005KT P6SM OVC060
      TEMPO 0507/0510 5SM -SHSN SCT015 BKN030
     FM051000 VRB03KT 5SM BR BKN015
     FM051500 VRB06KT P6SM SCT200=



000
FTUS45 KPUB 050720 AAA
TAFPUB
TAF AMD
KPUB 050720Z 0507/0606 35008KT 3SM -SHSN OVC050
      TEMPO 0507/0510 1SM -SHSN BR BKN010
     FM051000 31010KT P6SM BKN050 OVC100
     FM051400 30008KT P6SM SCT050 BKN100
     FM051700 VRB06KT P6SM SCT120 SCT200=



000
FTUS45 KPUB 050629 AAB
TAFCOS
TAF AMD
KCOS 050629Z 0506/0606 33008KT 5SM -SHSN SCT010 BKN015
      TEMPO 0506/0510 3/4SM -SN BR OVC010
     FM051300 34009KT P6SM SCT020 SCT120
     FM051600 VRB06KT P6SM FEW120 SCT200=



000
FTUS45 KPUB 050629 AAB
TAFCOS
TAF AMD
KCOS 050629Z 0506/0606 33008KT 5SM -SHSN SCT010 BKN015
      TEMPO 0506/0510 3/4SM -SN BR OVC010
     FM051300 34009KT P6SM SCT020 SCT120
     FM051600 VRB06KT P6SM FEW120 SCT200=



000
FTUS45 KPUB 050629 AAB
TAFCOS
TAF AMD
KCOS 050629Z 0506/0606 33008KT 5SM -SHSN SCT010 BKN015
      TEMPO 0506/0510 3/4SM -SN BR OVC010
     FM051300 34009KT P6SM SCT020 SCT120
     FM051600 VRB06KT P6SM FEW120 SCT200=



000
FTUS45 KPUB 050602 AAA
TAFCOS
TAF AMD
KCOS 050602Z 0506/0606 33008KT 5SM -SHSN SCT010 BKN015
      TEMPO 0506/0510 3/4SM -SN BR OVC006
     FM051300 34009KT P6SM SCT020 SCT120
     FM051600 VRB06KT P6SM FEW120 SCT200=



000
FTUS45 KPUB 050602 AAA
TAFCOS
TAF AMD
KCOS 050602Z 0506/0606 33008KT 5SM -SHSN SCT010 BKN015
      TEMPO 0506/0510 3/4SM -SN BR OVC006
     FM051300 34009KT P6SM SCT020 SCT120
     FM051600 VRB06KT P6SM FEW120 SCT200=



000
FTUS45 KPUB 050602 AAA
TAFCOS
TAF AMD
KCOS 050602Z 0506/0606 33008KT 5SM -SHSN SCT010 BKN015
      TEMPO 0506/0510 3/4SM -SN BR OVC006
     FM051300 34009KT P6SM SCT020 SCT120
     FM051600 VRB06KT P6SM FEW120 SCT200=



000
FTUS45 KPUB 050520
TAFPUB
TAF
KPUB 050520Z 0506/0606 27008KT P6SM BKN080
      TEMPO 0506/0510 5SM -SHSN SCT015 BKN030
     FM051400 30008KT P6SM SCT030 BKN120
     FM051700 VRB06KT P6SM SCT120 SCT200=



000
FTUS45 KPUB 050520
TAFALS
TAF
KALS 050520Z 0506/0606 VRB04KT P6SM FEW070
      TEMPO 0506/0510 5SM -SHSN SCT020 BKN030
     FM051000 VRB03KT 5SM BR BKN020
     FM051300 VRB06KT P6SM SCT200=



000
FTUS45 KPUB 050520
TAFALS
TAF
KALS 050520Z 0506/0606 VRB04KT P6SM FEW070
      TEMPO 0506/0510 5SM -SHSN SCT020 BKN030
     FM051000 VRB03KT 5SM BR BKN020
     FM051300 VRB06KT P6SM SCT200=



000
FTUS45 KPUB 050520
TAFCOS
TAF
KCOS 050520Z 0506/0606 33008KT 5SM -SHSN SCT010 BKN015
      TEMPO 0506/0510 1SM -SN BR OVC015
     FM051300 34009KT P6SM SCT020 SCT120
     FM051600 VRB06KT P6SM FEW120 SCT200=



000
FTUS45 KPUB 050520
TAFPUB
TAF
KPUB 050520Z 0506/0606 27008KT P6SM BKN080
      TEMPO 0506/0510 5SM -SHSN SCT015 BKN030
     FM051400 30008KT P6SM SCT030 BKN120
     FM051700 VRB06KT P6SM SCT120 SCT200=



000
FTUS45 KPUB 050520
TAFPUB
TAF
KPUB 050520Z 0506/0606 27008KT P6SM BKN080
      TEMPO 0506/0510 5SM -SHSN SCT015 BKN030
     FM051400 30008KT P6SM SCT030 BKN120
     FM051700 VRB06KT P6SM SCT120 SCT200=



000
FTUS45 KPUB 050520
TAFALS
TAF
KALS 050520Z 0506/0606 VRB04KT P6SM FEW070
      TEMPO 0506/0510 5SM -SHSN SCT020 BKN030
     FM051000 VRB03KT 5SM BR BKN020
     FM051300 VRB06KT P6SM SCT200=



000
FTUS45 KPUB 050520
TAFCOS
TAF
KCOS 050520Z 0506/0606 33008KT 5SM -SHSN SCT010 BKN015
      TEMPO 0506/0510 1SM -SN BR OVC015
     FM051300 34009KT P6SM SCT020 SCT120
     FM051600 VRB06KT P6SM FEW120 SCT200=



000
FTUS45 KPUB 050455 AAA
TAFCOS
TAF AMD
KCOS 050455Z 0505/0524 33008KT 5SM -SHSN SCT010 BKN015
      TEMPO 0505/0509 1SM -SN BR OVC015
     FM051300 35007KT P6SM SCT020 SCT120
     FM051500 34008KT P6SM FEW120 SCT200=



000
FTUS45 KPUB 050455 AAA
TAFCOS
TAF AMD
KCOS 050455Z 0505/0524 33008KT 5SM -SHSN SCT010 BKN015
      TEMPO 0505/0509 1SM -SN BR OVC015
     FM051300 35007KT P6SM SCT020 SCT120
     FM051500 34008KT P6SM FEW120 SCT200=



000
FTUS45 KPUB 042320
TAFCOS
TAF
KCOS 042320Z 0500/0524 VRB06KT P6SM SCT140 OVC200
     FM050200 02006KT P6SM SCT030 BKN080
     FM050500 36007KT 5SM -SHSN SCT010 BKN015
     FM051300 35007KT P6SM SCT020 SCT120
     FM051500 34008KT P6SM FEW120 SCT200=



000
FTUS45 KPUB 042320
TAFPUB
TAF
KPUB 042320Z 0500/0524 08008KT P6SM BKN200
     FM050200 VRB06KT P6SM SCT080 BKN120
     FM050600 02005KT 6SM -SHSN SCT015 BKN030
     FM051400 34007KT P6SM SCT030 BKN120
     FM051600 30010KT P6SM SCT120 SCT200=



000
FTUS45 KPUB 042320
TAFCOS
TAF
KCOS 042320Z 0500/0524 VRB06KT P6SM SCT140 OVC200
     FM050200 02006KT P6SM SCT030 BKN080
     FM050500 36007KT 5SM -SHSN SCT010 BKN015
     FM051300 35007KT P6SM SCT020 SCT120
     FM051500 34008KT P6SM FEW120 SCT200=



000
FTUS45 KPUB 042320
TAFPUB
TAF
KPUB 042320Z 0500/0524 08008KT P6SM BKN200
     FM050200 VRB06KT P6SM SCT080 BKN120
     FM050600 02005KT 6SM -SHSN SCT015 BKN030
     FM051400 34007KT P6SM SCT030 BKN120
     FM051600 30010KT P6SM SCT120 SCT200=



000
FTUS45 KPUB 042320
TAFALS
TAF
KALS 042320Z 0500/0524 VRB06KT P6SM OVC090
     FM050400 VRB04KT 6SM -SHSN SCT020 BKN030
     FM051000 VRB03KT 5SM BR BKN020
     FM051300 VRB04KT P6SM SCT200=



000
FTUS45 KPUB 042320
TAFALS
TAF
KALS 042320Z 0500/0524 VRB06KT P6SM OVC090
     FM050400 VRB04KT 6SM -SHSN SCT020 BKN030
     FM051000 VRB03KT 5SM BR BKN020
     FM051300 VRB04KT P6SM SCT200=



000
FTUS45 KPUB 042320
TAFPUB
TAF
KPUB 042320Z 0500/0524 08008KT P6SM BKN200
     FM050200 VRB06KT P6SM SCT080 BKN120
     FM050600 02005KT 6SM -SHSN SCT015 BKN030
     FM051400 34007KT P6SM SCT030 BKN120
     FM051600 30010KT P6SM SCT120 SCT200=



000
FTUS45 KPUB 042320
TAFALS
TAF
KALS 042320Z 0500/0524 VRB06KT P6SM OVC090
     FM050400 VRB04KT 6SM -SHSN SCT020 BKN030
     FM051000 VRB03KT 5SM BR BKN020
     FM051300 VRB04KT P6SM SCT200=



000
FTUS45 KPUB 042320
TAFCOS
TAF
KCOS 042320Z 0500/0524 VRB06KT P6SM SCT140 OVC200
     FM050200 02006KT P6SM SCT030 BKN080
     FM050500 36007KT 5SM -SHSN SCT010 BKN015
     FM051300 35007KT P6SM SCT020 SCT120
     FM051500 34008KT P6SM FEW120 SCT200=



000
FTUS45 KPUB 042037 AAA
TAFCOS
TAF AMD
KCOS 042037Z 0421/0518 15007KT P6SM SCT120 BKN250
     FM050200 02006KT P6SM SCT030 BKN080
     FM050500 36007KT 5SM -SHSN SCT010 BKN015
     FM051200 35007KT P6SM SCT020 SCT120
     FM051500 34008KT P6SM FEW120 SCT200=



000
FTUS45 KPUB 042034 AAB
TAFPUB
TAF AMD
KPUB 042034Z 0421/0518 09005KT P6SM BKN250
     FM042200 11006KT P6SM BKN200
     FM050600 02005KT 6SM -SHSN SCT015 BKN030
     FM051200 34007KT P6SM SCT030 BKN120
     FM051400 30010KT P6SM SCT120 SCT200=



000
FTUS45 KPUB 042032 AAA
TAFALS
TAF AMD
KALS 042032Z 0421/0518 VRB06KT P6SM SCT100 BKN200
     FM042200 23007KT P6SM BKN100
     FM050400 VRB04KT 6SM -SHSN SCT020 BKN030
     FM051000 VRB03KT 5SM BR BKN020
     FM051300 VRB04KT P6SM SCT020 SCT200=



000
FTUS45 KPUB 041737
TAFCOS
TAF
KCOS 041737Z 0418/0518 VRB06KT P6SM SCT250
     FM042000 16008KT P6SM SCT120 BKN250
     FM050100 02006KT P6SM SCT030 BKN080
     FM050300 36007KT 6SM -SHSN SCT010 BKN020
     FM050900 35007KT P6SM FEW020 SCT120
     FM051200 34008KT P6SM FEW120 SCT200=



000
FTUS45 KPUB 041737
TAFPUB
TAF
KPUB 041737Z 0418/0518 VRB05KT P6SM SCT250
     FM042100 11006KT P6SM BKN250
     FM050400 02005KT 6SM -SHSN SCT015 BKN030
     FM051000 34007KT P6SM SCT030 BKN120
     FM051400 30010KT P6SM SCT120 SCT200=



000
FTUS45 KPUB 041737
TAFALS
TAF
KALS 041737Z 0418/0518 VRB06KT P6SM FEW100 BKN250
     FM042200 23007KT P6SM BKN100
     FM050200 VRB04KT 6SM -SHSN SCT020 BKN040
     FM050800 VRB03KT 5SM BR BKN020
     FM051200 VRB04KT P6SM SCT020 SCT200=



000
FTUS45 KPUB 041120
TAFALS
TAF
KALS 041120Z 0412/0512 25006KT P6SM SKC
     FM042000 23007KT P6SM BKN100
     FM050100 VRB04KT P6SM VCSH SCT020 BKN050
     FM050800 VRB03KT P6SM BKN050=



000
FTUS45 KPUB 041120
TAFPUB
TAF
KPUB 041120Z 0412/0512 VRB03KT P6SM SKC
     FM042000 12006KT P6SM SCT100
     FM050200 02005KT P6SM VCSH SCT040 BKN100
     FM051000 34008KT P6SM SCT060 BKN120=



000
FTUS45 KPUB 041120
TAFCOS
TAF
KCOS 041120Z 0412/0512 35010KT P6SM SKC
     FM041700 16009KT P6SM SCT120
     FM050100 02006KT P6SM SCT030 BKN080
     FM050300 36007KT P6SM VCSH BKN030
     FM051000 35007KT P6SM FEW050 SCT120=



000
FTUS45 KPUB 041120
TAFALS
TAF
KALS 041120Z 0412/0512 25006KT P6SM SKC
     FM042000 23007KT P6SM BKN100
     FM050100 VRB04KT P6SM VCSH SCT020 BKN050
     FM050800 VRB03KT P6SM BKN050=



000
FTUS45 KPUB 041120
TAFPUB
TAF
KPUB 041120Z 0412/0512 VRB03KT P6SM SKC
     FM042000 12006KT P6SM SCT100
     FM050200 02005KT P6SM VCSH SCT040 BKN100
     FM051000 34008KT P6SM SCT060 BKN120=



000
FTUS45 KPUB 041120
TAFCOS
TAF
KCOS 041120Z 0412/0512 35010KT P6SM SKC
     FM041700 16009KT P6SM SCT120
     FM050100 02006KT P6SM SCT030 BKN080
     FM050300 36007KT P6SM VCSH BKN030
     FM051000 35007KT P6SM FEW050 SCT120=



000
FTUS45 KPUB 041120
TAFCOS
TAF
KCOS 041120Z 0412/0512 35010KT P6SM SKC
     FM041700 16009KT P6SM SCT120
     FM050100 02006KT P6SM SCT030 BKN080
     FM050300 36007KT P6SM VCSH BKN030
     FM051000 35007KT P6SM FEW050 SCT120=



000
FTUS45 KPUB 041120
TAFALS
TAF
KALS 041120Z 0412/0512 25006KT P6SM SKC
     FM042000 23007KT P6SM BKN100
     FM050100 VRB04KT P6SM VCSH SCT020 BKN050
     FM050800 VRB03KT P6SM BKN050=



000
FTUS45 KPUB 041120
TAFPUB
TAF
KPUB 041120Z 0412/0512 VRB03KT P6SM SKC
     FM042000 12006KT P6SM SCT100
     FM050200 02005KT P6SM VCSH SCT040 BKN100
     FM051000 34008KT P6SM SCT060 BKN120=



    US Dept of Commerce
    National Oceanic and Atmospheric Administration
    National Weather Service
    1325 East West Highway
    Silver Spring, MD 20910
    Page Author: NWS Internet Services Team
Disclaimer
Information Quality
Credits
Glossary
Privacy Policy
Freedom of Information Act (FOIA)
About Us
Career Opportunities